Time;durP1;ratioP1;P1;durP2;ratioP2;P2;SDS_P1;SDS_P2;PMS_P1;PMS_P2;Temp;Humidity;BMP_temperature;BMP_pressure;BME280_temperature;BME280_humidity;BME280_pressure;Samples;Min_cycle;Max_cycle;Signal;HPM_P1;HPM_P2
2024/01/02 00:00:38;;;;;;;1.33;1.20;;;6.60;99.90;;;;;;5053003;28;20447;-68
2024/01/02 00:03:04;;;;;;;2.03;1.00;;;6.60;99.90;;;;;;5052952;28;20420;-68
2024/01/02 00:05:30;;;;;;;5.00;1.10;;;6.60;99.90;;;;;;5053357;28;20581;-69
2024/01/02 00:07:55;;;;;;;4.37;0.87;;;6.60;99.90;;;;;;5052641;28;20177;-69
2024/01/02 00:10:22;;;;;;;4.23;2.20;;;6.60;99.90;;;;;;5052911;28;20208;-69
2024/01/02 00:12:47;;;;;;;3.50;1.30;;;6.60;99.90;;;;;;5053186;28;20214;-69
2024/01/02 00:15:13;;;;;;;5.17;1.37;;;6.60;99.90;;;;;;5052869;28;20443;-69
2024/01/02 00:17:38;;;;;;;1.67;0.77;;;6.60;99.90;;;;;;5052519;28;20291;-69
2024/01/02 00:20:05;;;;;;;3.20;1.10;;;6.60;99.90;;;;;;5052820;28;20170;-69
2024/01/02 00:22:30;;;;;;;2.67;1.27;;;6.60;99.90;;;;;;5052877;28;20228;-69
2024/01/02 00:24:56;;;;;;;1.60;0.80;;;6.60;99.90;;;;;;5052604;28;20432;-69
2024/01/02 00:27:21;;;;;;;2.57;0.90;;;6.60;99.90;;;;;;5052365;28;20170;-69
2024/01/02 00:29:47;;;;;;;2.37;1.03;;;6.60;99.90;;;;;;5052648;28;20208;-69
2024/01/02 00:32:12;;;;;;;5.50;1.17;;;6.60;99.90;;;;;;5052573;28;20176;-69
2024/01/02 00:34:38;;;;;;;3.57;0.77;;;6.60;99.90;;;;;;5052564;28;20181;-68
2024/01/02 00:37:03;;;;;;;0.70;0.67;;;6.60;99.90;;;;;;5052318;28;20196;-68
2024/01/02 00:39:29;;;;;;;2.13;0.90;;;6.60;99.90;;;;;;5052404;28;20540;-69
2024/01/02 00:41:54;;;;;;;1.50;1.03;;;6.60;99.90;;;;;;5052387;28;20256;-68
2024/01/02 00:44:20;;;;;;;2.90;1.47;;;6.70;99.90;;;;;;5052662;28;20204;-69
2024/01/02 00:46:45;;;;;;;3.10;0.80;;;6.60;99.90;;;;;;5052024;28;20208;-68
2024/01/02 00:49:11;;;;;;;1.77;0.70;;;6.60;99.90;;;;;;5052237;28;20201;-69
2024/01/02 00:51:37;;;;;;;1.70;0.63;;;6.70;99.90;;;;;;5052242;28;20172;-69
2024/01/02 00:54:02;;;;;;;1.80;0.77;;;6.70;99.90;;;;;;5051475;28;20174;-68
2024/01/02 00:56:28;;;;;;;2.77;1.13;;;6.70;99.90;;;;;;5051786;28;20268;-69
2024/01/02 00:58:54;;;;;;;2.60;1.60;;;6.70;99.90;;;;;;5052173;28;20168;-68
2024/01/02 01:01:20;;;;;;;3.93;1.20;;;6.60;99.90;;;;;;5052081;28;20499;-68
2024/01/02 01:03:46;;;;;;;2.03;0.80;;;6.60;99.90;;;;;;5052133;28;20186;-69
2024/01/02 01:06:11;;;;;;;4.70;1.00;;;6.60;99.90;;;;;;5051942;28;20205;-69
2024/01/02 01:08:37;;;;;;;4.37;0.80;;;6.60;99.90;;;;;;5051791;28;20199;-68
2024/01/02 01:11:03;;;;;;;2.73;1.00;;;6.60;99.90;;;;;;5052080;28;20232;-69
2024/01/02 01:13:28;;;;;;;2.00;1.13;;;6.60;99.90;;;;;;5052114;28;20586;-69
2024/01/02 01:15:54;;;;;;;1.97;1.17;;;6.60;99.90;;;;;;5034038;28;20488;-69
2024/01/02 01:18:19;;;;;;;4.13;1.10;;;6.60;99.90;;;;;;5051711;28;20174;-69
2024/01/02 01:20:45;;;;;;;1.33;0.67;;;6.60;99.90;;;;;;5051951;28;20829;-69
2024/01/02 01:23:10;;;;;;;1.73;1.10;;;6.60;99.90;;;;;;5051852;28;20174;-68
2024/01/02 01:25:36;;;;;;;6.60;2.80;;;6.60;99.90;;;;;;5051909;28;20200;-69
2024/01/02 01:28:03;;;;;;;1.97;0.87;;;6.60;99.90;;;;;;5051544;28;20226;-69
2024/01/02 01:30:29;;;;;;;1.20;1.10;;;6.50;99.90;;;;;;5051755;28;20193;-68
2024/01/02 01:32:54;;;;;;;0.80;0.70;;;6.60;99.90;;;;;;5051879;28;20812;-68
2024/01/02 01:35:20;;;;;;;2.30;0.90;;;6.60;99.90;;;;;;5051735;28;20193;-68
2024/01/02 01:37:45;;;;;;;1.20;0.90;;;6.60;99.90;;;;;;5051479;28;20544;-69
2024/01/02 01:40:11;;;;;;;2.57;0.90;;;6.60;99.90;;;;;;5052017;28;20257;-68
2024/01/02 01:42:37;;;;;;;1.03;0.90;;;6.60;99.90;;;;;;5051890;28;20242;-69
2024/01/02 01:45:02;;;;;;;1.53;0.90;;;6.60;99.90;;;;;;5051593;28;20190;-69
2024/01/02 01:47:28;;;;;;;5.40;1.50;;;6.50;99.90;;;;;;5051428;28;20166;-69
2024/01/02 01:49:53;;;;;;;3.60;0.83;;;6.60;99.90;;;;;;5051612;28;20204;-68
2024/01/02 01:52:19;;;;;;;1.10;0.83;;;6.60;99.90;;;;;;5051546;28;20162;-69
2024/01/02 01:54:45;;;;;;;2.40;2.20;;;6.60;99.90;;;;;;5051735;28;20189;-69
2024/01/02 01:57:12;;;;;;;1.63;0.70;;;6.50;99.90;;;;;;5051272;28;20177;-69
2024/01/02 01:59:38;;;;;;;1.77;1.37;;;6.60;99.90;;;;;;5051508;28;20161;-69
2024/01/02 02:02:04;;;;;;;3.10;0.70;;;6.60;99.90;;;;;;5051539;28;20435;-69
2024/01/02 02:04:32;;;;;;;1.07;0.80;;;6.60;99.90;;;;;;5051252;28;20810;-69
2024/01/02 02:06:58;;;;;;;2.40;1.20;;;6.60;99.90;;;;;;5054676;28;20170;-68
2024/01/02 02:09:23;;;;;;;2.27;1.00;;;6.60;99.90;;;;;;5055212;28;20458;-68
2024/01/02 02:11:49;;;;;;;1.20;0.90;;;6.60;99.90;;;;;;5055138;28;20172;-68
2024/01/02 02:14:15;;;;;;;1.43;1.30;;;6.60;99.90;;;;;;5055091;28;20535;-69
2024/01/02 02:16:42;;;;;;;0.83;0.80;;;6.60;99.90;;;;;;5054834;28;20172;-69
2024/01/02 02:19:08;;;;;;;1.47;1.10;;;6.60;99.90;;;;;;5054999;28;20481;-69
2024/01/02 02:21:35;;;;;;;1.90;1.10;;;6.70;99.90;;;;;;5055134;28;20412;-69
2024/01/02 02:24:00;;;;;;;4.03;0.97;;;6.70;99.90;;;;;;5054898;28;20591;-68
2024/01/02 02:26:26;;;;;;;1.53;1.10;;;6.70;99.90;;;;;;5054511;28;20443;-68
2024/01/02 02:28:51;;;;;;;1.23;0.90;;;6.60;99.90;;;;;;5054769;28;20228;-69
2024/01/02 02:31:18;;;;;;;1.33;1.00;;;6.60;99.90;;;;;;5054755;28;20575;-69
2024/01/02 02:33:43;;;;;;;1.57;1.10;;;6.60;99.90;;;;;;5054762;28;20180;-69
2024/01/02 02:36:09;;;;;;;1.37;0.70;;;6.60;99.90;;;;;;5054581;28;20883;-69
2024/01/02 02:38:34;;;;;;;2.10;1.27;;;6.60;99.90;;;;;;5054418;28;20233;-68
2024/01/02 02:41:00;;;;;;;1.10;1.00;;;6.50;99.90;;;;;;5054626;28;20543;-68
2024/01/02 02:43:25;;;;;;;1.67;0.80;;;6.50;99.90;;;;;;5054552;28;20661;-68
2024/01/02 02:45:51;;;;;;;1.30;0.63;;;6.40;99.90;;;;;;5054508;28;20604;-68
2024/01/02 02:48:16;;;;;;;1.17;0.87;;;6.40;99.90;;;;;;5054110;28;20192;-69
2024/01/02 02:50:42;;;;;;;2.13;0.90;;;6.30;99.90;;;;;;5054278;28;20271;-69
2024/01/02 02:53:07;;;;;;;1.10;0.77;;;6.20;99.90;;;;;;5054285;28;20166;-68
2024/01/02 02:55:33;;;;;;;0.83;0.83;;;6.20;99.90;;;;;;5054323;28;20190;-69
2024/01/02 02:57:59;;;;;;;5.57;1.30;;;6.10;99.90;;;;;;5054145;28;20177;-69
2024/01/02 03:00:24;;;;;;;1.37;0.90;;;6.00;99.90;;;;;;5054263;28;20261;-69
2024/01/02 03:02:50;;;;;;;2.10;0.87;;;6.00;99.90;;;;;;5054133;28;20396;-68
2024/01/02 03:05:16;;;;;;;1.60;0.80;;;6.00;99.90;;;;;;5054188;28;20221;-69
2024/01/02 03:07:42;;;;;;;1.20;1.00;;;6.00;99.90;;;;;;5053853;28;20173;-69
2024/01/02 03:10:10;;;;;;;0.93;0.80;;;5.90;99.90;;;;;;5054022;28;20868;-68
2024/01/02 03:12:35;;;;;;;2.20;0.90;;;5.90;99.90;;;;;;5054131;28;20173;-68
2024/01/02 03:15:01;;;;;;;1.13;0.90;;;5.80;99.90;;;;;;5053967;28;20493;-69
2024/01/02 03:17:27;;;;;;;2.20;1.20;;;5.80;99.90;;;;;;5053046;28;20169;-69
2024/01/02 03:19:53;;;;;;;1.50;0.90;;;5.80;99.90;;;;;;5053899;28;20169;-69
2024/01/02 03:22:18;;;;;;;0.90;0.90;;;5.70;99.90;;;;;;5053956;28;20178;-69
2024/01/02 03:24:44;;;;;;;1.47;0.83;;;5.80;99.90;;;;;;5053838;28;20527;-69
2024/01/02 03:27:09;;;;;;;2.13;0.70;;;5.80;99.90;;;;;;5053514;28;20327;-69
2024/01/02 03:29:35;;;;;;;1.27;0.73;;;5.80;99.90;;;;;;5053649;28;20796;-68
2024/01/02 03:32:00;;;;;;;0.90;0.70;;;5.80;99.90;;;;;;5053612;28;20178;-69
2024/01/02 03:34:26;;;;;;;1.03;0.93;;;5.70;99.90;;;;;;5053539;28;20600;-69
2024/01/02 03:36:51;;;;;;;1.53;0.90;;;5.80;99.90;;;;;;5053316;28;20518;-69
2024/01/02 03:39:17;;;;;;;2.43;0.90;;;5.80;99.90;;;;;;5053909;28;20169;-69
2024/01/02 03:41:42;;;;;;;1.10;0.70;;;5.80;99.90;;;;;;5053534;28;20162;-69
2024/01/02 03:44:08;;;;;;;1.80;0.73;;;5.70;99.90;;;;;;5053586;28;20684;-69
2024/01/02 03:46:33;;;;;;;1.43;0.80;;;5.70;99.90;;;;;;5053317;28;20174;-69
2024/01/02 03:48:59;;;;;;;2.30;0.90;;;5.70;99.90;;;;;;5053313;28;20185;-69
2024/01/02 03:51:24;;;;;;;3.90;0.83;;;5.70;99.90;;;;;;5053442;28;20682;-70
2024/01/02 03:53:50;;;;;;;0.60;0.60;;;5.70;99.90;;;;;;5053481;28;20635;-70
2024/01/02 03:56:16;;;;;;;1.10;0.80;;;5.70;99.90;;;;;;5053429;28;20205;-70
2024/01/02 03:58:42;;;;;;;3.23;0.93;;;5.80;99.90;;;;;;5053169;28;20197;-69
2024/01/02 04:01:07;;;;;;;1.10;0.60;;;5.80;99.90;;;;;;5053489;28;20948;-69
2024/01/02 04:03:33;;;;;;;1.03;0.50;;;5.80;99.90;;;;;;5053020;28;20692;-70
2024/01/02 04:05:58;;;;;;;0.60;0.60;;;5.80;99.90;;;;;;5052846;28;20216;-69
2024/01/02 04:08:24;;;;;;;1.53;0.60;;;5.80;99.90;;;;;;5052629;28;20173;-69
2024/01/02 04:10:49;;;;;;;2.10;0.60;;;5.70;99.90;;;;;;5052967;28;20263;-70
2024/01/02 04:13:15;;;;;;;0.90;0.77;;;5.80;99.90;;;;;;5053074;28;20173;-69
2024/01/02 04:15:40;;;;;;;0.53;0.50;;;5.80;99.90;;;;;;5052817;28;20209;-69
2024/01/02 04:18:06;;;;;;;0.90;0.80;;;5.80;99.90;;;;;;5052558;28;20223;-69
2024/01/02 04:20:31;;;;;;;2.23;0.97;;;5.80;99.90;;;;;;5052974;28;20539;-69
2024/01/02 04:22:57;;;;;;;0.73;0.70;;;5.80;99.90;;;;;;5052935;28;20708;-69
2024/01/02 04:25:24;;;;;;;1.23;0.70;;;5.80;99.90;;;;;;5052867;28;20264;-70
2024/01/02 04:27:54;;;;;;;1.03;0.60;;;5.80;99.90;;;;;;5052646;28;20571;-69
2024/01/02 04:30:20;;;;;;;2.10;0.67;;;5.80;99.90;;;;;;5052939;28;20488;-70
2024/01/02 04:32:45;;;;;;;1.20;0.60;;;5.70;99.90;;;;;;5052392;28;20408;-70
2024/01/02 04:35:11;;;;;;;1.00;0.60;;;5.70;99.90;;;;;;5052535;28;20193;-68
2024/01/02 04:37:36;;;;;;;1.03;0.67;;;5.70;99.90;;;;;;5052232;28;20162;-70
2024/01/02 04:40:05;;;;;;;1.83;0.73;;;5.70;99.90;;;;;;5052576;28;20547;-70
2024/01/02 04:42:35;;;;;;;0.73;0.60;;;5.70;99.90;;;;;;5052450;28;20546;-70
2024/01/02 04:45:04;;;;;;;1.20;0.63;;;5.70;99.90;;;;;;5052441;28;20435;-70
2024/01/02 04:47:29;;;;;;;0.90;0.70;;;5.70;99.90;;;;;;5052028;28;20435;-70
2024/01/02 04:49:55;;;;;;;1.50;0.70;;;5.70;99.90;;;;;;5052214;28;20455;-70
2024/01/02 04:52:21;;;;;;;0.80;0.60;;;5.70;99.90;;;;;;5052216;28;20165;-70
2024/01/02 04:54:48;;;;;;;0.60;0.60;;;5.70;99.90;;;;;;5052270;28;20213;-70
2024/01/02 04:57:13;;;;;;;1.73;0.90;;;5.70;99.90;;;;;;5052128;28;20489;-70
2024/01/02 04:59:39;;;;;;;0.83;0.80;;;5.60;99.90;;;;;;5052649;28;20415;-69
2024/01/02 05:02:05;;;;;;;1.20;0.80;;;5.60;99.90;;;;;;5052648;28;20540;-70
2024/01/02 05:04:30;;;;;;;0.80;0.70;;;5.70;99.90;;;;;;5052451;28;20211;-70
2024/01/02 05:06:56;;;;;;;0.80;0.77;;;5.70;99.90;;;;;;5052587;28;20216;-70
2024/01/02 05:09:21;;;;;;;2.60;1.10;;;5.60;99.90;;;;;;5052786;28;20205;-70
2024/01/02 05:11:48;;;;;;;0.90;0.90;;;5.60;99.90;;;;;;5052967;28;20180;-70
2024/01/02 05:14:15;;;;;;;1.43;1.00;;;5.60;99.90;;;;;;5052598;28;20177;-69
2024/01/02 05:16:41;;;;;;;1.37;0.80;;;5.60;99.90;;;;;;5052339;28;20475;-70
2024/01/02 05:19:06;;;;;;;0.80;0.70;;;5.60;99.90;;;;;;5052759;28;20474;-69
2024/01/02 05:21:32;;;;;;;2.10;0.90;;;5.60;99.90;;;;;;5052837;28;20173;-70
2024/01/02 05:23:58;;;;;;;0.80;0.80;;;5.60;99.90;;;;;;5052774;28;20531;-70
2024/01/02 05:26:23;;;;;;;2.03;1.10;;;5.60;99.90;;;;;;5052324;28;20182;-70
2024/01/02 05:28:49;;;;;;;1.33;0.83;;;5.60;99.90;;;;;;5052110;28;20204;-70
2024/01/02 05:31:14;;;;;;;1.10;0.90;;;5.60;99.90;;;;;;5051999;28;20201;-70
2024/01/02 05:33:40;;;;;;;1.57;0.90;;;5.60;99.90;;;;;;5052423;28;20193;-70
2024/01/02 05:36:05;;;;;;;1.00;0.70;;;5.70;99.90;;;;;;5052167;28;20186;-70
2024/01/02 05:38:31;;;;;;;1.23;1.10;;;5.70;99.90;;;;;;5052159;28;20658;-70
2024/01/02 05:40:56;;;;;;;1.47;0.90;;;5.70;99.90;;;;;;5054529;28;20236;-70
2024/01/02 05:43:22;;;;;;;2.13;0.83;;;5.70;99.90;;;;;;5056336;28;20180;-70
2024/01/02 05:45:47;;;;;;;1.27;0.87;;;5.70;99.90;;;;;;5056191;28;20193;-70
2024/01/02 05:48:13;;;;;;;2.57;1.07;;;5.70;99.90;;;;;;5056110;28;20524;-70
2024/01/02 05:50:38;;;;;;;3.00;0.90;;;5.70;99.90;;;;;;5056412;28;20198;-70
2024/01/02 05:53:04;;;;;;;2.70;1.17;;;5.70;99.90;;;;;;5056385;28;20635;-70
2024/01/02 05:55:29;;;;;;;1.10;1.00;;;5.80;99.90;;;;;;5056363;28;20192;-69
2024/01/02 05:57:55;;;;;;;0.93;0.93;;;5.80;99.90;;;;;;5055791;28;20181;-71
2024/01/02 06:00:21;;;;;;;1.33;1.23;;;5.80;99.90;;;;;;5038472;28;20180;-70
2024/01/02 06:02:46;;;;;;;0.73;0.73;;;5.80;99.90;;;;;;5056274;28;20529;-70
2024/01/02 06:05:12;;;;;;;1.00;0.90;;;5.80;99.90;;;;;;5071691;22;20217;-70
2024/01/02 06:07:37;;;;;;;1.67;1.00;;;5.80;99.90;;;;;;5054609;28;20206;-69
2024/01/02 06:10:03;;;;;;;2.10;1.20;;;5.80;99.90;;;;;;5054789;28;20214;-70
2024/01/02 06:12:29;;;;;;;1.90;0.70;;;5.80;99.90;;;;;;5055168;28;20300;-69
2024/01/02 06:14:54;;;;;;;0.90;0.77;;;5.80;99.90;;;;;;5055011;28;20189;-69
2024/01/02 06:17:21;;;;;;;3.40;0.83;;;5.90;99.90;;;;;;5054745;28;20265;-70
2024/01/02 06:19:47;;;;;;;1.07;0.70;;;5.90;99.90;;;;;;5055011;28;20534;-70
2024/01/02 06:22:12;;;;;;;1.50;0.77;;;5.90;99.90;;;;;;5054933;28;20423;-69
2024/01/02 06:24:38;;;;;;;1.60;1.03;;;5.90;99.90;;;;;;5054968;28;20173;-70
2024/01/02 06:27:04;;;;;;;2.40;0.73;;;5.90;99.90;;;;;;5054555;28;20166;-70
2024/01/02 06:29:29;;;;;;;1.60;0.90;;;5.90;99.90;;;;;;5054711;28;20191;-70
2024/01/02 06:31:55;;;;;;;0.87;0.70;;;5.90;99.90;;;;;;5054705;28;20539;-69
2024/01/02 06:34:20;;;;;;;1.10;0.90;;;5.90;99.90;;;;;;5054744;28;20184;-70
2024/01/02 06:36:46;;;;;;;1.00;0.73;;;5.90;99.90;;;;;;5054298;28;20200;-70
2024/01/02 06:39:11;;;;;;;0.80;0.80;;;5.90;99.90;;;;;;5054597;28;20630;-67
2024/01/02 06:41:37;;;;;;;1.67;0.80;;;6.00;99.90;;;;;;5054598;28;20690;-68
2024/01/02 06:44:02;;;;;;;0.87;0.87;;;6.00;99.90;;;;;;5054513;28;20173;-68
2024/01/02 06:46:28;;;;;;;1.97;1.37;;;6.00;99.90;;;;;;5054091;28;20198;-67
2024/01/02 06:48:53;;;;;;;1.17;0.70;;;6.00;99.90;;;;;;5054314;28;20185;-67
2024/01/02 06:51:19;;;;;;;2.17;0.70;;;6.00;99.90;;;;;;5053607;28;20216;-67
2024/01/02 06:53:44;;;;;;;2.20;1.13;;;6.00;99.90;;;;;;5053964;28;20261;-67
2024/01/02 06:56:10;;;;;;;2.07;0.83;;;6.10;99.90;;;;;;5054261;28;20666;-68
2024/01/02 06:58:36;;;;;;;1.53;0.70;;;6.10;99.90;;;;;;5053968;28;20174;-68
2024/01/02 07:01:02;;;;;;;0.80;0.80;;;6.10;99.90;;;;;;5054157;28;20166;-67
2024/01/02 07:03:28;;;;;;;1.03;0.80;;;6.10;99.90;;;;;;5054175;28;20896;-67
2024/01/02 07:05:53;;;;;;;0.70;0.70;;;6.20;99.90;;;;;;5054022;28;20584;-68
2024/01/02 07:08:19;;;;;;;1.63;0.83;;;6.20;99.90;;;;;;5054194;28;20177;-68
2024/01/02 07:10:44;;;;;;;0.60;0.50;;;6.20;99.90;;;;;;5054067;28;20335;-68
2024/01/02 07:13:10;;;;;;;0.70;0.70;;;6.20;99.90;;;;;;5053964;28;20177;-67
2024/01/02 07:15:35;;;;;;;0.83;0.70;;;6.20;99.90;;;;;;5053847;28;20186;-67
2024/01/02 07:18:01;;;;;;;1.77;1.27;;;6.30;99.90;;;;;;5053614;28;20260;-67
2024/01/02 07:20:26;;;;;;;1.00;0.90;;;6.20;99.90;;;;;;5053871;28;20170;-67
2024/01/02 07:22:52;;;;;;;1.20;1.10;;;6.30;99.90;;;;;;5053838;28;20177;-67
2024/01/02 07:25:18;;;;;;;0.83;0.83;;;6.30;99.90;;;;;;5053719;28;20702;-67
2024/01/02 07:27:44;;;;;;;1.07;0.90;;;6.30;99.90;;;;;;5053467;28;20269;-67
2024/01/02 07:30:10;;;;;;;1.90;1.00;;;6.30;99.90;;;;;;5053600;28;20603;-67
2024/01/02 07:32:36;;;;;;;0.60;0.60;;;6.30;99.90;;;;;;5053592;28;20162;-67
2024/01/02 07:35:02;;;;;;;1.10;0.90;;;6.30;99.90;;;;;;5053551;28;20526;-67
2024/01/02 07:37:28;;;;;;;1.43;0.80;;;6.40;99.90;;;;;;5053245;28;20419;-66
2024/01/02 07:39:54;;;;;;;1.47;1.27;;;6.40;99.90;;;;;;5053562;28;20420;-66
2024/01/02 07:42:20;;;;;;;1.83;0.83;;;6.40;99.90;;;;;;5035629;28;20169;-66
2024/01/02 07:44:46;;;;;;;1.33;0.70;;;6.40;99.90;;;;;;5050761;28;20428;-67
2024/01/02 07:47:11;;;;;;;1.03;0.77;;;6.40;99.90;;;;;;5052507;28;20420;-67
2024/01/02 07:49:37;;;;;;;1.03;0.70;;;6.40;99.90;;;;;;5053277;28;20569;-67
2024/01/02 07:52:03;;;;;;;0.83;0.80;;;6.50;99.90;;;;;;5053203;28;20166;-67
2024/01/02 07:54:28;;;;;;;1.63;1.03;;;6.50;99.90;;;;;;5053211;28;20178;-67
2024/01/02 07:56:54;;;;;;;1.83;0.77;;;6.50;99.90;;;;;;5052402;28;20254;-67
2024/01/02 07:59:22;;;;;;;1.07;0.97;;;6.60;99.90;;;;;;5052835;28;20416;-67
2024/01/02 08:01:48;;;;;;;0.87;0.70;;;6.60;99.90;;;;;;5053023;28;20165;-67
2024/01/02 08:04:13;;;;;;;1.10;1.10;;;6.60;99.90;;;;;;5052690;28;20507;-67
2024/01/02 08:06:39;;;;;;;2.27;0.83;;;6.70;99.90;;;;;;5052587;28;20901;-67
2024/01/02 08:09:04;;;;;;;1.53;0.80;;;6.80;99.90;;;;;;5052796;28;20170;-66
2024/01/02 08:11:30;;;;;;;0.60;0.60;;;6.80;99.90;;;;;;5052888;28;20622;-66
2024/01/02 08:13:56;;;;;;;0.80;0.80;;;6.90;99.90;;;;;;5034932;28;20185;-66
2024/01/02 08:16:22;;;;;;;0.80;0.73;;;6.90;99.90;;;;;;5052528;28;20182;-66
2024/01/02 08:18:47;;;;;;;0.93;0.50;;;7.00;99.90;;;;;;5052691;28;20415;-66
2024/01/02 08:21:13;;;;;;;0.53;0.47;;;7.00;99.90;;;;;;5052719;28;20185;-69
2024/01/02 08:23:39;;;;;;;0.50;0.50;;;7.10;99.90;;;;;;5052643;28;20177;-65
2024/01/02 08:26:14;;;;;;;1.13;0.70;;;7.20;99.90;;;;;;5052520;28;20444;-68
2024/01/02 08:28:40;;;;;;;0.60;0.50;;;7.20;99.90;;;;;;5052345;28;20255;-68
2024/01/02 08:31:06;;;;;;;0.80;0.80;;;7.20;99.90;;;;;;5052360;28;20504;-68
2024/01/02 08:33:31;;;;;;;1.60;0.60;;;7.20;99.90;;;;;;5052517;28;20169;-66
2024/01/02 08:35:57;;;;;;;0.73;0.50;;;7.30;99.90;;;;;;5034487;28;20216;-69
2024/01/02 08:38:22;;;;;;;0.60;0.50;;;7.30;99.90;;;;;;5052060;28;20192;-66
2024/01/02 08:40:49;;;;;;;0.87;0.87;;;7.40;99.90;;;;;;5051976;28;20216;-66
2024/01/02 08:43:16;;;;;;;0.77;0.77;;;7.40;99.90;;;;;;5051917;28;20287;-67
2024/01/02 08:45:42;;;;;;;0.60;0.60;;;7.50;99.90;;;;;;5051553;28;20462;-66
2024/01/02 08:48:10;;;;;;;0.67;0.63;;;7.50;99.90;;;;;;5051997;28;20420;-66
2024/01/02 08:50:35;;;;;;;0.60;0.50;;;7.50;99.90;;;;;;5052131;28;20513;-66
2024/01/02 08:53:01;;;;;;;0.70;0.57;;;7.60;99.90;;;;;;5052057;28;20416;-66
2024/01/02 08:55:27;;;;;;;0.97;0.50;;;7.60;99.90;;;;;;5052017;28;20564;-66
2024/01/02 08:57:52;;;;;;;0.60;0.60;;;7.60;99.90;;;;;;5051678;28;20563;-66
2024/01/02 09:00:18;;;;;;;0.97;0.60;;;7.60;99.90;;;;;;5052051;28;20173;-66
2024/01/02 09:02:44;;;;;;;0.70;0.63;;;7.70;99.90;;;;;;5052032;28;20184;-66
2024/01/02 09:05:09;;;;;;;0.60;0.40;;;7.70;99.90;;;;;;5051815;28;20254;-66
2024/01/02 09:07:36;;;;;;;1.27;0.60;;;7.80;99.90;;;;;;5051506;28;20181;-66
2024/01/02 09:10:02;;;;;;;0.60;0.50;;;7.90;99.90;;;;;;5046150;28;20194;-66
2024/01/02 09:12:28;;;;;;;0.70;0.70;;;7.90;99.90;;;;;;5051076;28;20424;-66
2024/01/02 09:14:54;;;;;;;0.70;0.70;;;8.00;99.90;;;;;;5051154;28;20470;-66
2024/01/02 09:17:20;;;;;;;0.50;0.40;;;8.00;99.90;;;;;;5051347;28;20165;-66
2024/01/02 09:19:46;;;;;;;0.50;0.50;;;8.10;99.90;;;;;;5033823;28;20482;-66
2024/01/02 09:22:11;;;;;;;0.70;0.60;;;8.20;99.90;;;;;;5051644;28;20251;-66
2024/01/02 09:24:39;;;;;;;0.93;0.63;;;8.20;99.90;;;;;;5051580;28;20463;-66
2024/01/02 09:27:05;;;;;;;0.50;0.40;;;8.30;99.90;;;;;;5050883;28;20566;-66
2024/01/02 09:29:31;;;;;;;1.00;0.43;;;8.30;99.90;;;;;;5046836;28;20444;-66
2024/01/02 09:31:57;;;;;;;0.50;0.47;;;8.40;99.90;;;;;;5051613;28;21038;-66
2024/01/02 09:34:23;;;;;;;0.53;0.47;;;8.50;99.90;;;;;;5051667;28;20188;-66
2024/01/02 09:36:52;;;;;;;0.83;0.50;;;8.50;99.90;;;;;;5051178;28;20439;-66
2024/01/02 09:39:17;;;;;;;0.57;0.50;;;8.60;99.90;;;;;;5051477;28;20412;-66
2024/01/02 09:41:53;;;;;;;0.60;0.60;;;8.60;99.90;;;;;;5050937;28;20451;-66
2024/01/02 09:44:50;;;;;;;0.80;0.60;;;8.60;99.90;;;;;;5051167;28;20563;-66
2024/01/02 09:47:16;;;;;;;0.60;0.50;;;8.70;99.90;;;;;;5050668;28;20427;-66
2024/01/02 09:50:08;;;;;;;0.93;0.57;;;8.70;99.90;;;;;;5051510;28;20440;-66
2024/01/02 09:53:11;;;;;;;0.80;0.60;;;8.70;99.90;;;;;;5031675;28;20519;-66
2024/01/02 09:55:55;;;;;;;0.60;0.40;;;8.70;99.90;;;;;;5031473;28;20941;-66
2024/01/02 09:58:34;;;;;;;0.60;0.50;;;8.80;99.90;;;;;;5031313;28;20486;-66
2024/01/02 10:01:22;;;;;;;0.60;0.50;;;8.80;99.90;;;;;;5031520;28;20546;-66
2024/01/02 10:04:02;;;;;;;0.57;0.57;;;8.90;99.90;;;;;;5031532;28;20788;-66
2024/01/02 10:06:36;;;;;;;0.50;0.50;;;9.00;99.90;;;;;;5030984;28;20550;-66
2024/01/02 10:09:16;;;;;;;0.60;0.53;;;9.00;99.90;;;;;;5031366;28;20420;-66
2024/01/02 10:11:48;;;;;;;0.70;0.60;;;9.00;99.90;;;;;;5031527;28;20432;-66
2024/01/02 10:14:28;;;;;;;0.40;0.40;;;9.10;99.90;;;;;;5031556;28;20413;-66
2024/01/02 10:17:22;;;;;;;0.70;0.70;;;9.10;99.90;;;;;;5030962;28;20428;-66
2024/01/02 10:20:28;;;;;;;1.23;0.60;;;9.20;99.90;;;;;;5030809;28;20976;-66
2024/01/02 10:23:07;;;;;;;0.50;0.50;;;9.20;99.90;;;;;;5031381;28;20436;-65
2024/01/02 10:25:33;;;;;;;0.70;0.50;;;9.30;99.90;;;;;;5031151;28;21038;-65
2024/01/02 10:28:16;;;;;;;0.60;0.60;;;9.30;99.90;;;;;;5034494;28;20551;-65
2024/01/02 10:30:52;;;;;;;1.33;0.60;;;9.30;99.90;;;;;;5034783;28;20464;-65
2024/01/02 10:33:28;;;;;;;0.60;0.50;;;9.30;99.90;;;;;;5034733;28;20508;-65
2024/01/02 10:35:56;;;;;;;0.57;0.57;;;9.30;99.90;;;;;;5034614;28;20834;-66
2024/01/02 10:38:24;;;;;;;1.00;0.50;;;9.30;99.90;;;;;;5034409;28;20527;-66
2024/01/02 10:40:52;;;;;;;0.50;0.50;;;9.30;99.90;;;;;;5034601;28;20412;-67
2024/01/02 10:43:28;;;;;;;0.80;0.80;;;9.30;99.90;;;;;;5034647;28;20413;-66
2024/01/02 10:46:20;;;;;;;0.60;0.60;;;9.40;99.90;;;;;;5034467;28;20441;-66
2024/01/02 10:48:59;;;;;;;0.47;0.40;;;9.40;99.90;;;;;;5034405;28;20448;-66
2024/01/02 10:51:40;;;;;;;0.70;0.70;;;9.40;99.90;;;;;;5034488;28;20456;-67
2024/01/02 10:54:13;;;;;;;0.70;0.53;;;9.50;99.90;;;;;;5034387;28;20969;-67
2024/01/02 10:56:48;;;;;;;0.50;0.47;;;9.50;99.90;;;;;;5033980;28;20835;-66
2024/01/02 10:59:36;;;;;;;2.80;0.50;;;9.60;99.90;;;;;;5037449;28;21103;-67
2024/01/02 11:02:43;;;;;;;0.80;0.50;;;9.60;99.90;;;;;;5051660;28;20503;-67
2024/01/02 11:05:23;;;;;;;0.50;0.50;;;9.70;99.90;;;;;;4980416;28;21065;-67
2024/01/02 11:08:18;;;;;;;1.10;1.00;;;9.70;99.90;;;;;;5048100;28;20523;-67
2024/01/02 11:10:56;;;;;;;1.10;0.60;;;9.70;99.90;;;;;;5051523;28;20968;-67
2024/01/02 11:13:23;;;;;;;0.87;0.73;;;9.80;99.90;;;;;;5051259;28;20562;-67
2024/01/02 11:16:12;;;;;;;0.60;0.60;;;9.80;99.90;;;;;;5053410;28;20444;-67
2024/01/02 11:18:40;;;;;;;0.60;0.50;;;9.80;99.90;;;;;;5052579;28;20420;-67
2024/01/02 11:21:27;;;;;;;0.60;0.50;;;9.90;99.90;;;;;;5053466;28;20436;-67
2024/01/02 11:23:55;;;;;;;1.10;1.00;;;9.90;99.90;;;;;;5052493;28;20858;-67
2024/01/02 11:26:30;;;;;;;0.60;0.60;;;10.00;99.90;;;;;;5050879;28;20443;-67
2024/01/02 11:29:00;;;;;;;1.80;1.43;;;10.20;99.90;;;;;;5053155;28;20424;-67
2024/01/02 11:31:26;;;;;;;0.60;0.60;;;10.30;99.90;;;;;;5049484;28;20805;-67
2024/01/02 11:34:21;;;;;;;0.63;0.63;;;10.40;99.90;;;;;;5053297;28;20420;-66
2024/01/02 11:36:53;;;;;;;1.20;0.73;;;10.50;99.90;;;;;;5041765;28;20796;-67
2024/01/02 11:39:35;;;;;;;0.80;0.80;;;10.50;99.90;;;;;;5042320;28;20424;-68
2024/01/02 11:42:22;;;;;;;1.00;0.60;;;10.40;99.90;;;;;;5052424;28;20546;-68
2024/01/02 11:45:04;;;;;;;0.60;0.60;;;10.40;99.90;;;;;;5050453;28;20462;-68
2024/01/02 11:47:42;;;;;;;0.73;0.73;;;10.40;99.90;;;;;;5053023;28;20469;-69
2024/01/02 11:50:09;;;;;;;0.60;0.60;;;10.50;99.90;;;;;;5053281;28;20504;-67
2024/01/02 11:52:57;;;;;;;1.20;0.77;;;10.40;99.90;;;;;;5053177;28;20416;-69
2024/01/02 11:55:48;;;;;;;1.00;0.90;;;10.60;99.90;;;;;;5053326;28;20448;-67
2024/01/02 11:58:25;;;;;;;0.80;0.80;;;10.70;99.90;;;;;;5052912;28;20486;-67
2024/01/02 12:01:18;;;;;;;0.80;0.67;;;10.90;99.90;;;;;;5052915;28;20445;-67
2024/01/02 12:04:06;;;;;;;0.70;0.70;;;10.90;99.90;;;;;;5054265;28;20435;-67
2024/01/02 12:06:49;;;;;;;1.20;0.60;;;10.80;99.90;;;;;;5104906;22;20625;-71
2024/01/02 12:09:17;;;;;;;0.60;0.50;;;10.90;99.90;;;;;;5072806;28;20903;-70
2024/01/02 12:12:03;;;;;;;1.03;0.80;;;10.80;99.90;;;;;;5072914;28;20426;-70
2024/01/02 12:15:08;;;;;;;0.90;0.73;;;10.80;99.90;;;;;;5054964;28;20911;-71
2024/01/02 12:17:41;;;;;;;0.80;0.77;;;10.50;99.90;;;;;;5052560;28;20416;-71
2024/01/02 12:20:10;;;;;;;0.60;0.60;;;10.40;99.90;;;;;;5052801;28;20797;-71
2024/01/02 12:22:36;;;;;;;0.60;0.60;;;10.30;99.90;;;;;;5052614;28;20450;-71
2024/01/02 12:25:06;;;;;;;0.80;0.80;;;10.20;99.90;;;;;;5052582;28;20952;-71
2024/01/02 12:27:34;;;;;;;0.70;0.70;;;10.10;99.90;;;;;;5052008;28;20477;-71
2024/01/02 12:30:05;;;;;;;0.93;0.77;;;9.90;99.90;;;;;;5052492;28;20451;-71
2024/01/02 12:32:40;;;;;;;1.13;1.03;;;9.80;99.90;;;;;;5052513;28;21060;-71
2024/01/02 12:35:12;;;;;;;0.70;0.70;;;9.70;99.90;;;;;;5052428;28;20411;-71
2024/01/02 12:37:54;;;;;;;1.13;1.03;;;9.60;99.90;;;;;;5052078;28;20420;-71
2024/01/02 12:40:21;;;;;;;0.70;0.70;;;9.50;99.90;;;;;;5052401;28;20484;-70
2024/01/02 12:42:49;;;;;;;0.70;0.70;;;9.50;99.90;;;;;;5052261;28;20420;-70
2024/01/02 12:45:20;;;;;;;1.03;0.60;;;9.50;99.90;;;;;;5052279;28;20797;-71
2024/01/02 12:47:47;;;;;;;0.70;0.70;;;9.50;99.90;;;;;;5052015;28;20573;-70
2024/01/02 12:50:15;;;;;;;0.90;0.63;;;9.40;99.90;;;;;;5051312;28;20447;-70
2024/01/02 12:53:01;;;;;;;0.73;0.70;;;9.40;99.90;;;;;;5052207;28;20826;-70
2024/01/02 12:55:31;;;;;;;1.80;0.60;;;9.40;99.90;;;;;;5052140;28;20435;-70
2024/01/02 12:57:57;;;;;;;0.90;0.70;;;9.40;99.90;;;;;;5051840;28;20409;-70
2024/01/02 13:00:24;;;;;;;1.07;0.70;;;9.40;99.90;;;;;;5052118;28;20790;-70
2024/01/02 13:02:50;;;;;;;0.70;0.70;;;9.40;99.90;;;;;;5052215;28;20920;-71